createdAt,value
2017-08-24T00:02:27.211Z,100851.72
2017-08-24T00:04:55.530Z,100843.94
2017-08-24T00:07:23.838Z,100849.53
2017-08-24T00:09:52.178Z,100845.44
2017-08-24T00:12:20.472Z,100841.65
2017-08-24T00:14:48.804Z,100838.68
2017-08-24T00:17:17.122Z,100832.98
2017-08-24T00:19:45.456Z,100824.72
2017-08-24T00:22:13.761Z,100829.81
2017-08-24T00:24:42.094Z,100832.34
2017-08-24T00:27:10.414Z,100829.77
2017-08-24T00:29:38.711Z,100826.77
2017-08-24T00:32:07.017Z,100818.59
2017-08-24T00:34:35.321Z,100819.83
2017-08-24T00:37:03.632Z,100815.59
2017-08-24T00:39:31.940Z,100817.81
2017-08-24T00:42:00.968Z,100812.75
2017-08-24T00:44:29.290Z,100808.83
2017-08-24T00:46:57.595Z,100809.91
2017-08-24T00:49:25.988Z,100800.95
2017-08-24T00:51:54.302Z,100796.08
2017-08-24T00:54:22.613Z,100798.16
2017-08-24T00:56:50.931Z,100797.45
2017-08-24T00:59:19.411Z,100802.84
2017-08-24T01:01:47.709Z,100798.65
2017-08-24T01:04:16.037Z,100799.06
2017-08-24T01:06:44.359Z,100796.77
2017-08-24T01:09:12.669Z,100792.94
2017-08-24T01:11:40.992Z,100802.84
2017-08-24T01:14:09.293Z,100795.16
2017-08-24T01:16:37.593Z,100793.47
2017-08-24T01:19:05.895Z,100789.98
2017-08-24T01:21:34.202Z,100780.52
2017-08-24T01:24:02.510Z,100778.17
2017-08-24T01:26:30.826Z,100774.16
2017-08-24T01:28:59.142Z,100767.86
2017-08-24T01:31:27.483Z,100760.07
2017-08-24T01:33:55.793Z,100761.61
2017-08-24T01:36:24.103Z,100747.41
2017-08-24T01:38:52.418Z,100752.09
2017-08-24T01:41:20.747Z,100757.08
2017-08-24T01:43:49.066Z,100757.73
2017-08-24T01:46:24.202Z,100744.58
2017-08-24T01:48:52.560Z,100733.13
2017-08-24T01:51:20.882Z,100727.52
2017-08-24T01:53:49.215Z,100729.70
2017-08-24T01:56:17.526Z,100734.91
2017-08-24T01:58:45.892Z,100740.30
2017-08-24T02:01:14.189Z,100737.42
2017-08-24T02:03:42.531Z,100736.25
2017-08-24T02:06:10.855Z,100747.55
2017-08-24T02:08:39.170Z,100729.14
2017-08-24T02:11:07.481Z,100730.13
2017-08-24T02:13:35.777Z,100724.94
2017-08-24T02:16:04.080Z,100723.27
2017-08-24T02:18:32.446Z,100728.80
2017-08-24T02:21:00.774Z,100731.19
2017-08-24T02:23:29.081Z,100715.92
2017-08-24T02:25:57.377Z,100728.31
2017-08-24T02:28:25.685Z,100732.35
2017-08-24T02:30:53.982Z,100733.75
2017-08-24T02:33:22.301Z,100731.84
2017-08-24T02:35:58.433Z,100725.66
2017-08-24T02:38:26.749Z,100720.36
2017-08-24T02:40:55.059Z,100719.17
2017-08-24T02:43:23.376Z,100715.34
2017-08-24T02:45:51.784Z,100706.47
2017-08-24T02:48:20.113Z,100708.62
2017-08-24T02:50:48.429Z,100701.07
2017-08-24T02:53:16.741Z,100700.56
2017-08-24T02:55:45.069Z,100702.91
2017-08-24T02:58:13.380Z,100705.84
2017-08-24T03:00:41.703Z,100704.93
2017-08-24T03:03:10.033Z,100699.64
2017-08-24T03:05:38.361Z,100699.20
2017-08-24T03:08:06.677Z,100700.28
2017-08-24T03:10:35.012Z,100690.93
2017-08-24T03:13:03.344Z,100691.48
2017-08-24T03:15:31.654Z,100689.87
2017-08-24T03:17:59.965Z,100683.69
2017-08-24T03:20:28.272Z,100675.80
2017-08-24T03:22:56.600Z,100681.20
2017-08-24T03:25:24.925Z,100672.28
2017-08-24T03:27:53.238Z,100675.13
2017-08-24T03:30:21.581Z,100674.34
2017-08-24T03:32:49.936Z,100674.20
2017-08-24T03:35:18.259Z,100671.74
2017-08-24T03:37:46.591Z,100673.14
2017-08-24T03:40:14.916Z,100658.66
2017-08-24T03:42:43.236Z,100661.67
2017-08-24T03:45:11.571Z,100662.53
2017-08-24T03:47:39.898Z,100658.84
2017-08-24T03:50:08.218Z,100651.40
2017-08-24T03:52:36.538Z,100655.19
2017-08-24T03:55:04.870Z,100652.77
2017-08-24T03:57:33.179Z,100654.84
2017-08-24T04:00:01.507Z,100641.09
2017-08-24T04:02:29.836Z,100642.27
2017-08-24T04:04:58.245Z,100647.44
2017-08-24T04:07:26.582Z,100643.55
2017-08-24T04:09:54.892Z,100640.67
2017-08-24T04:12:23.222Z,100640.72
2017-08-24T04:14:51.538Z,100638.74
2017-08-24T04:17:19.879Z,100627.03
2017-08-24T04:19:48.192Z,100625.53
2017-08-24T04:22:16.544Z,100624.80
2017-08-24T04:24:44.873Z,100621.05
2017-08-24T04:27:13.235Z,100627.36
2017-08-24T04:29:41.593Z,100626.08
2017-08-24T04:32:09.935Z,100627.12
2017-08-24T04:34:38.261Z,100623.19
2017-08-24T04:37:06.586Z,100622.31
2017-08-24T04:39:34.925Z,100617.17
2017-08-24T04:42:03.233Z,100618.06
2017-08-24T04:44:31.814Z,100617.02
2017-08-24T04:47:00.134Z,100621.16
2017-08-24T04:49:28.470Z,100620.30
2017-08-24T04:51:56.810Z,100619.64
2017-08-24T04:54:25.121Z,100616.27
2017-08-24T04:56:53.445Z,100603.57
2017-08-24T04:59:21.780Z,100620.50
2017-08-24T05:01:50.102Z,100616.00
2017-08-24T05:04:18.409Z,100608.97
2017-08-24T05:06:46.759Z,100606.45
2017-08-24T05:09:15.070Z,100600.92
2017-08-24T05:11:43.379Z,100598.25
2017-08-24T05:14:11.698Z,100602.88
2017-08-24T05:16:40.362Z,100603.05
2017-08-24T05:19:08.749Z,100604.00
2017-08-24T05:21:37.066Z,100597.53
2017-08-24T05:24:05.381Z,100603.47
2017-08-24T05:26:33.717Z,100605.45
2017-08-24T05:29:02.054Z,100606.98
2017-08-24T05:31:30.365Z,100603.16
2017-08-24T05:33:58.678Z,100599.50
2017-08-24T05:36:27.013Z,100598.94
2017-08-24T05:38:55.328Z,100601.97
2017-08-24T05:41:23.641Z,100604.03
2017-08-24T05:43:51.962Z,100568.52
2017-08-24T05:46:20.285Z,100599.08
2017-08-24T05:48:48.598Z,100604.83
2017-08-24T05:51:16.930Z,100592.19
2017-08-24T05:53:45.242Z,100600.42
2017-08-24T05:56:13.555Z,100601.16
2017-08-24T05:58:41.879Z,100597.98
2017-08-24T06:01:11.098Z,100593.67
2017-08-24T06:03:39.410Z,100593.27
2017-08-24T06:06:07.746Z,100589.73
2017-08-24T06:08:36.067Z,100589.56
2017-08-24T06:11:04.385Z,100588.95
2017-08-24T06:13:32.710Z,100587.81
2017-08-24T06:16:01.025Z,100591.75
2017-08-24T06:18:29.334Z,100584.88
2017-08-24T06:20:57.659Z,100586.49
2017-08-24T06:23:25.978Z,100585.96
2017-08-24T06:25:54.304Z,100580.13
2017-08-24T06:28:22.623Z,100587.57
2017-08-24T06:30:50.938Z,100585.85
2017-08-24T06:33:19.253Z,100580.25
2017-08-24T06:35:47.595Z,100575.16
2017-08-24T06:38:15.911Z,100585.84
2017-08-24T06:40:44.227Z,100589.33
2017-08-24T06:43:12.554Z,100592.73
2017-08-24T06:45:40.864Z,100594.15
2017-08-24T06:48:09.186Z,100589.71
2017-08-24T06:50:37.492Z,100595.59
2017-08-24T06:53:05.801Z,100615.03
2017-08-24T06:55:34.110Z,100620.41
2017-08-24T06:58:02.430Z,100628.95
2017-08-24T07:00:30.738Z,100627.34
2017-08-24T07:02:59.078Z,100643.98
2017-08-24T07:05:27.387Z,100655.89
2017-08-24T07:07:55.700Z,100666.31
2017-08-24T07:10:24.023Z,100678.05
2017-08-24T07:12:52.335Z,100684.90
2017-08-24T07:15:20.661Z,100693.38
2017-08-24T07:17:48.971Z,100692.35
2017-08-24T07:20:17.285Z,100703.34
2017-08-24T07:22:45.591Z,100700.34
2017-08-24T07:25:13.938Z,100674.39
2017-08-24T07:27:42.268Z,100698.88
2017-08-24T07:30:10.598Z,100683.13
2017-08-24T07:32:38.926Z,100676.72
2017-08-24T07:35:07.253Z,100674.23
2017-08-24T07:37:35.598Z,100674.67
2017-08-24T07:40:03.906Z,100662.05
2017-08-24T07:42:32.237Z,100665.33
2017-08-24T07:45:00.581Z,100674.00
2017-08-24T07:47:28.906Z,100680.79
2017-08-24T07:49:57.223Z,100709.98
2017-08-24T07:52:25.573Z,100731.31
2017-08-24T07:54:53.891Z,100739.79
2017-08-24T07:57:22.207Z,100753.64
2017-08-24T07:59:50.559Z,100763.13
2017-08-24T08:02:18.875Z,100776.58
2017-08-24T08:04:47.185Z,100786.44
2017-08-24T08:07:15.530Z,100775.77
2017-08-24T08:09:43.848Z,100766.95
2017-08-24T08:12:12.161Z,100773.47
2017-08-24T08:14:40.509Z,100728.45
2017-08-24T08:17:08.835Z,100646.20
2017-08-24T08:19:37.150Z,100616.07
2017-08-24T08:22:05.497Z,100657.06
2017-08-24T08:24:33.808Z,100692.41
2017-08-24T08:27:02.127Z,100680.50
2017-08-24T08:29:30.469Z,100671.30
2017-08-24T08:31:58.778Z,100641.84
2017-08-24T08:34:27.086Z,100623.88
2017-08-24T08:36:55.434Z,100625.96
2017-08-24T08:39:23.742Z,100636.91
2017-08-24T08:41:52.057Z,100646.05
2017-08-24T08:44:20.409Z,100642.44
2017-08-24T08:46:48.729Z,100644.56
2017-08-24T08:49:17.040Z,100643.48
2017-08-24T08:51:45.397Z,100646.64
2017-08-24T08:54:13.709Z,100649.38
2017-08-24T08:56:42.027Z,100655.14
2017-08-24T08:59:10.366Z,100656.06
2017-08-24T09:01:38.690Z,100653.00
2017-08-24T09:04:07.001Z,100654.94
2017-08-24T09:06:35.355Z,100664.67
2017-08-24T09:09:03.679Z,100659.44
2017-08-24T09:11:32.005Z,100674.34
2017-08-24T09:14:00.332Z,100695.86
2017-08-24T09:16:28.669Z,100696.88
2017-08-24T09:18:56.998Z,100696.20
2017-08-24T09:21:25.326Z,100698.66
2017-08-24T09:23:53.645Z,100697.64
2017-08-24T09:26:21.953Z,100703.28
2017-08-24T09:28:50.276Z,100701.73
2017-08-24T09:31:18.598Z,100700.58
2017-08-24T09:33:46.925Z,100694.44
2017-08-24T09:36:15.242Z,100696.55
2017-08-24T09:38:43.583Z,100698.34
2017-08-24T09:41:11.905Z,100709.57
2017-08-24T09:43:40.238Z,100706.15
2017-08-24T09:46:08.551Z,100708.97
2017-08-24T09:48:36.893Z,100714.47
2017-08-24T09:51:05.211Z,100709.12
2017-08-24T09:53:33.538Z,100694.87
2017-08-24T09:56:01.851Z,100701.23
2017-08-24T09:58:30.181Z,100696.45
2017-08-24T10:00:58.490Z,100696.22
2017-08-24T10:03:26.878Z,100705.72
2017-08-24T10:05:55.198Z,100710.55
2017-08-24T10:08:23.513Z,100711.73
2017-08-24T10:10:51.840Z,100713.52
2017-08-24T10:13:20.150Z,100704.87
2017-08-24T10:15:48.474Z,100707.38
2017-08-24T10:18:16.798Z,100712.07
2017-08-24T10:20:45.138Z,100713.41
2017-08-24T10:23:13.454Z,100715.63
2017-08-24T10:25:41.787Z,100720.82
2017-08-24T10:28:10.110Z,100723.30
2017-08-24T10:30:38.467Z,100728.34
2017-08-24T10:33:06.766Z,100727.76
2017-08-24T10:35:35.094Z,100731.70
2017-08-24T10:38:03.412Z,100722.79
2017-08-24T10:40:31.742Z,100733.50
2017-08-24T10:43:00.068Z,100728.84
2017-08-24T10:45:28.398Z,100734.66
2017-08-24T10:47:56.742Z,100731.75
2017-08-24T10:50:25.073Z,100737.41
2017-08-24T10:52:53.394Z,100734.64
2017-08-24T10:55:21.723Z,100734.98
2017-08-24T10:57:50.054Z,100733.25
2017-08-24T11:00:18.394Z,100741.19
2017-08-24T11:02:46.709Z,100730.52
2017-08-24T11:05:15.031Z,100733.95
2017-08-24T11:07:43.349Z,100736.87
2017-08-24T11:10:11.686Z,100743.73
2017-08-24T11:12:40.004Z,100744.84
2017-08-24T11:15:08.314Z,100741.44
2017-08-24T11:17:36.634Z,100739.87
2017-08-24T11:20:04.947Z,100731.09
2017-08-24T11:22:33.258Z,100740.62
2017-08-24T11:25:01.582Z,100742.27
2017-08-24T11:27:29.898Z,100735.77
2017-08-24T11:29:58.219Z,100732.48
2017-08-24T11:32:26.546Z,100727.78
2017-08-24T11:34:54.857Z,100736.80
2017-08-24T11:37:23.178Z,100733.66
2017-08-24T11:39:51.486Z,100740.95
2017-08-24T11:42:19.807Z,100741.38
2017-08-24T11:44:48.130Z,100749.17
2017-08-24T11:47:16.458Z,100749.48
2017-08-24T11:49:44.768Z,100747.81
2017-08-24T11:52:13.081Z,100750.22
2017-08-24T11:54:41.389Z,100743.50
2017-08-24T11:57:09.722Z,100743.90
2017-08-24T11:59:38.026Z,100743.98
2017-08-24T12:02:06.358Z,100745.58
2017-08-24T12:04:34.667Z,100745.83
2017-08-24T12:07:02.991Z,100739.98
2017-08-24T12:09:31.308Z,100745.18
2017-08-24T12:11:59.629Z,100748.54
2017-08-24T12:14:27.942Z,100747.20
2017-08-24T12:16:56.274Z,100749.29
2017-08-24T12:19:24.588Z,100753.42
2017-08-24T12:21:52.905Z,100755.12
2017-08-24T12:24:21.227Z,100750.55
2017-08-24T12:26:49.539Z,100749.75
2017-08-24T12:29:17.853Z,100754.98
2017-08-24T12:31:46.158Z,100754.85
2017-08-24T12:34:14.474Z,100750.53
2017-08-24T12:36:42.842Z,100752.98
2017-08-24T12:39:11.158Z,100752.34
2017-08-24T12:41:39.465Z,100757.19
2017-08-24T12:44:07.783Z,100753.47
2017-08-24T12:46:36.087Z,100749.14
2017-08-24T12:49:04.407Z,100752.45
2017-08-24T12:51:32.718Z,100753.84
2017-08-24T12:54:01.030Z,100754.57
2017-08-24T12:56:29.334Z,100754.94
2017-08-24T12:58:58.655Z,100749.95
2017-08-24T13:01:26.968Z,100751.36
2017-08-24T13:03:55.287Z,100747.64
2017-08-24T13:06:23.593Z,100751.19
2017-08-24T13:08:51.933Z,100753.88
2017-08-24T13:11:20.251Z,100755.30
2017-08-24T13:13:48.590Z,100751.27
2017-08-24T13:16:16.936Z,100746.81
2017-08-24T13:18:45.258Z,100741.20
2017-08-24T13:21:13.577Z,100745.75
2017-08-24T13:23:41.919Z,100757.05
2017-08-24T13:26:10.233Z,100751.53
2017-08-24T13:28:38.574Z,100750.17
2017-08-24T13:31:06.890Z,100748.70
2017-08-24T13:33:35.207Z,100745.61
2017-08-24T13:36:03.534Z,100740.97
2017-08-24T13:38:32.087Z,100736.64
2017-08-24T13:41:00.663Z,100741.87
2017-08-24T13:43:28.977Z,100737.68
2017-08-24T13:45:57.294Z,100744.27
2017-08-24T13:48:25.610Z,100733.09
2017-08-24T13:50:53.927Z,100734.91
2017-08-24T13:53:22.241Z,100734.98
2017-08-24T13:55:50.578Z,100729.00
2017-08-24T13:58:18.897Z,100732.14
2017-08-24T14:00:47.231Z,100729.02
2017-08-24T14:03:15.538Z,100730.38
2017-08-24T14:05:43.859Z,100727.45
2017-08-24T14:08:12.167Z,100722.41
2017-08-24T14:10:40.488Z,100727.86
2017-08-24T14:13:08.822Z,100731.19
2017-08-24T14:15:37.143Z,100729.22
2017-08-24T14:18:05.485Z,100731.09
2017-08-24T14:20:33.802Z,100742.60
2017-08-24T14:23:02.110Z,100742.28
2017-08-24T14:25:30.426Z,100738.67
2017-08-24T14:27:58.734Z,100744.80
2017-08-24T14:30:27.058Z,100738.72
2017-08-24T14:32:55.380Z,100739.27
2017-08-24T14:35:23.711Z,100738.91
2017-08-24T14:37:52.029Z,100738.29
2017-08-24T14:40:20.337Z,100738.66
2017-08-24T14:42:48.650Z,100733.84
2017-08-24T14:45:16.981Z,100734.41
2017-08-24T14:47:45.301Z,100726.08
2017-08-24T14:50:13.607Z,100731.49
2017-08-24T14:52:41.925Z,100730.12
2017-08-24T14:55:10.234Z,100733.08
2017-08-24T14:57:38.557Z,100739.81
2017-08-24T15:00:06.874Z,100727.15
2017-08-24T15:02:35.197Z,100728.46
2017-08-24T15:05:03.506Z,100730.41
2017-08-24T15:07:31.826Z,100730.18
2017-08-24T15:10:00.142Z,100726.66
2017-08-24T15:12:28.458Z,100729.13
2017-08-24T15:14:56.780Z,100727.68
2017-08-24T15:17:25.097Z,100733.25
2017-08-24T15:19:53.418Z,100735.09
2017-08-24T15:22:21.841Z,100730.61
2017-08-24T15:24:50.154Z,100732.77
2017-08-24T15:27:18.478Z,100737.64
2017-08-24T15:29:46.789Z,100740.36
2017-08-24T15:32:15.105Z,100729.04
2017-08-24T15:34:43.419Z,100727.88
2017-08-24T15:37:11.748Z,100740.53
2017-08-24T15:39:40.053Z,100745.55
2017-08-24T15:42:08.382Z,100747.35
2017-08-24T15:44:36.705Z,100746.80
2017-08-24T15:47:05.039Z,100747.92
2017-08-24T15:49:33.346Z,100743.39
2017-08-24T15:52:01.653Z,100753.13
2017-08-24T15:54:29.973Z,100754.81
2017-08-24T15:56:58.389Z,100747.69
2017-08-24T15:59:26.706Z,100752.37
2017-08-24T16:01:55.018Z,100754.64
2017-08-24T16:04:23.338Z,100750.77
2017-08-24T16:06:51.647Z,100743.00
2017-08-24T16:09:19.965Z,100746.69
2017-08-24T16:11:48.270Z,100754.78
2017-08-24T16:14:16.607Z,100762.66
2017-08-24T16:16:44.938Z,100758.75
2017-08-24T16:19:13.286Z,100753.62
2017-08-24T16:21:41.597Z,100750.98
2017-08-24T16:24:09.914Z,100755.92
2017-08-24T16:26:38.221Z,100760.02
2017-08-24T16:29:06.535Z,100765.25
2017-08-24T16:31:34.847Z,100768.53
2017-08-24T16:34:03.170Z,100768.38
2017-08-24T16:36:31.476Z,100760.70
2017-08-24T16:38:59.801Z,100771.02
2017-08-24T16:41:28.126Z,100768.88
2017-08-24T16:43:56.445Z,100770.66
2017-08-24T16:46:24.753Z,100775.41
2017-08-24T16:48:53.081Z,100776.27
2017-08-24T16:51:21.397Z,100778.52
2017-08-24T16:53:49.734Z,100781.83
2017-08-24T16:56:18.049Z,100789.09
2017-08-24T16:58:46.349Z,100792.42
2017-08-24T17:01:14.666Z,100790.33
2017-08-24T17:03:42.971Z,100791.19
2017-08-24T17:06:11.287Z,100794.38
2017-08-24T17:08:39.634Z,100797.69
2017-08-24T17:11:08.249Z,100802.08
2017-08-24T17:13:36.759Z,100805.33
2017-08-24T17:16:05.089Z,100801.83
2017-08-24T17:18:33.394Z,100797.53
2017-08-24T17:21:01.718Z,100795.33
2017-08-24T17:23:30.034Z,100798.84
2017-08-24T17:25:58.365Z,100801.33
2017-08-24T17:28:26.685Z,100790.69
2017-08-24T17:30:55.008Z,100790.11
2017-08-24T17:33:23.326Z,100795.25
2017-08-24T17:35:51.850Z,100803.74
2017-08-24T17:38:20.166Z,100797.57
2017-08-24T17:40:48.490Z,100800.70
2017-08-24T17:43:16.868Z,100807.23
2017-08-24T17:45:45.199Z,100810.08
2017-08-24T17:48:13.505Z,100808.53
2017-08-24T17:50:41.860Z,100808.41
2017-08-24T17:53:10.188Z,100809.70
2017-08-24T17:58:06.211Z,100804.44
2017-08-24T18:00:34.547Z,100807.59
2017-08-24T18:03:02.861Z,100807.16
2017-08-24T18:05:31.202Z,100809.62
2017-08-24T18:07:59.518Z,100808.24
2017-08-24T18:10:27.829Z,100816.69
2017-08-24T18:12:56.138Z,100815.44
2017-08-24T18:15:24.450Z,100811.61
2017-08-24T18:17:53.574Z,100806.87
2017-08-24T18:20:21.883Z,100803.88
2017-08-24T18:22:50.199Z,100805.95
2017-08-24T18:25:18.504Z,100811.96
2017-08-24T18:27:46.821Z,100809.41
2017-08-24T18:30:15.129Z,100816.57
2017-08-24T18:32:43.455Z,100820.52
2017-08-24T18:35:11.770Z,100828.30
2017-08-24T18:37:40.111Z,100827.60
2017-08-24T18:40:08.422Z,100831.70
2017-08-24T18:42:36.775Z,100831.30
2017-08-24T18:45:05.167Z,100837.98
2017-08-24T18:47:34.058Z,100848.09
2017-08-24T18:50:02.597Z,100844.84
2017-08-24T18:52:31.366Z,100845.83
2017-08-24T18:55:00.790Z,100852.91
2017-08-24T18:57:29.335Z,100858.88
2017-08-24T18:59:57.661Z,100855.34
2017-08-24T19:02:26.029Z,100859.23
2017-08-24T19:04:54.358Z,100859.80
2017-08-24T19:07:22.679Z,100856.11
2017-08-24T19:09:51.010Z,100857.08
2017-08-24T19:12:19.365Z,100859.85
2017-08-24T19:14:47.698Z,100862.67
2017-08-24T19:17:16.036Z,100862.27
2017-08-24T19:19:44.373Z,100866.16
2017-08-24T19:22:12.694Z,100856.38
2017-08-24T19:24:41.011Z,100866.05
2017-08-24T19:27:09.328Z,100860.19
2017-08-24T19:29:37.646Z,100863.11
2017-08-24T19:32:05.956Z,100858.29
2017-08-24T19:34:34.337Z,100856.16
2017-08-24T19:37:02.658Z,100849.47
2017-08-24T19:39:30.984Z,100864.61
2017-08-24T19:41:59.291Z,100869.31
2017-08-24T19:44:27.690Z,100869.09
2017-08-24T19:46:55.997Z,100875.17
2017-08-24T19:49:24.323Z,100875.89
2017-08-24T19:51:52.642Z,100884.56
2017-08-24T19:54:20.965Z,100879.26
2017-08-24T19:56:49.274Z,100888.07
2017-08-24T19:59:17.618Z,100890.83
2017-08-24T20:01:45.932Z,100890.97
2017-08-24T20:04:14.253Z,100888.23
2017-08-24T20:06:42.564Z,100889.20
2017-08-24T20:09:10.881Z,100884.81
2017-08-24T20:11:39.194Z,100886.05
2017-08-24T20:14:07.504Z,100890.47
2017-08-24T20:16:35.814Z,100893.63
2017-08-24T20:19:04.148Z,100896.11
2017-08-24T20:21:32.468Z,100901.64
2017-08-24T20:24:00.822Z,100899.74
2017-08-24T20:26:29.134Z,100903.16
2017-08-24T20:28:57.454Z,100904.53
2017-08-24T20:31:25.786Z,100903.98
2017-08-24T20:33:54.101Z,100906.73
2017-08-24T20:36:22.422Z,100905.77
2017-08-24T20:38:50.746Z,100909.22
2017-08-24T20:41:19.067Z,100909.77
2017-08-24T20:43:47.385Z,100906.88
2017-08-24T20:46:15.703Z,100911.29
2017-08-24T20:48:44.017Z,100915.52
2017-08-24T20:51:12.335Z,100912.10
2017-08-24T20:53:40.650Z,100911.81
2017-08-24T20:56:08.995Z,100910.73
2017-08-24T20:58:37.301Z,100910.47
2017-08-24T21:01:05.622Z,100911.98
2017-08-24T21:03:33.981Z,100914.44
2017-08-24T21:06:02.312Z,100911.02
2017-08-24T21:08:30.625Z,100917.06
2017-08-24T21:10:58.957Z,100913.61
2017-08-24T21:13:27.295Z,100915.12
2017-08-24T21:15:55.619Z,100916.91
2017-08-24T21:18:23.939Z,100920.87
2017-08-24T21:20:52.263Z,100922.27
2017-08-24T21:23:20.578Z,100917.87
2017-08-24T21:25:48.898Z,100917.86
2017-08-24T21:28:17.214Z,100913.33
2017-08-24T21:30:45.565Z,100917.02
2017-08-24T21:33:13.879Z,100909.48
2017-08-24T21:35:42.212Z,100906.57
2017-08-24T21:38:10.558Z,100917.70
2017-08-24T21:40:38.878Z,100907.67
2017-08-24T21:43:08.038Z,100907.80
2017-08-24T21:45:36.371Z,100909.31
2017-08-24T21:48:04.690Z,100911.50
2017-08-24T21:50:33.006Z,100911.36
2017-08-24T21:53:01.330Z,100910.69
2017-08-24T21:55:29.666Z,100905.61
2017-08-24T21:57:58.004Z,100912.33
2017-08-24T22:00:26.317Z,100910.41
2017-08-24T22:02:54.638Z,100910.95
2017-08-24T22:05:22.949Z,100911.48
2017-08-24T22:07:51.266Z,100904.34
2017-08-24T22:10:19.572Z,100914.63
2017-08-24T22:12:47.889Z,100913.92
2017-08-24T22:15:16.210Z,100907.75
2017-08-24T22:17:44.541Z,100918.05
2017-08-24T22:20:12.854Z,100911.73
2017-08-24T22:22:41.188Z,100917.77
2017-08-24T22:25:09.517Z,100915.26
2017-08-24T22:27:37.829Z,100914.00
2017-08-24T22:30:06.139Z,100913.48
2017-08-24T22:32:34.465Z,100921.42
2017-08-24T22:35:02.780Z,100918.12
2017-08-24T22:37:31.097Z,100922.66
2017-08-24T22:39:59.402Z,100924.72
2017-08-24T22:42:27.751Z,100926.22
2017-08-24T22:44:56.062Z,100924.33
2017-08-24T22:47:24.373Z,100927.64
2017-08-24T22:49:52.690Z,100933.13
2017-08-24T22:52:20.993Z,100931.61
2017-08-24T22:54:54.723Z,100932.41
2017-08-24T22:57:28.599Z,100939.16
2017-08-24T23:00:02.259Z,100937.08
2017-08-24T23:05:37.422Z,100944.77
2017-08-24T23:08:05.728Z,100939.70
2017-08-24T23:10:34.042Z,100942.71
2017-08-24T23:13:02.356Z,100943.00
2017-08-24T23:15:30.673Z,100943.13
2017-08-24T23:17:58.992Z,100943.66
2017-08-24T23:20:27.320Z,100942.65
2017-08-24T23:22:55.634Z,100947.96
2017-08-24T23:25:23.950Z,100956.49
2017-08-24T23:27:52.272Z,100949.89
2017-08-24T23:30:20.605Z,100949.17
2017-08-24T23:32:48.921Z,100949.28
2017-08-24T23:35:17.251Z,100955.03
2017-08-24T23:37:45.573Z,100957.62
2017-08-24T23:40:13.903Z,100960.36
2017-08-24T23:42:42.202Z,100958.72
2017-08-24T23:45:10.527Z,100958.27
2017-08-24T23:47:38.847Z,100963.91
2017-08-24T23:50:07.161Z,100961.95
2017-08-24T23:52:35.478Z,100963.45
2017-08-24T23:55:03.794Z,100960.83
2017-08-24T23:57:32.106Z,100960.39
